• Join FlightAware (Why Join?)
  • Login
  • US Flag 
07:34PM EST


 

Airport Tracker/Info


-or-


 

Live Flight TrackerFlight Track Log ✈ SKW6195 ✈ 20-Sep-2013 ✈ KDEN - KBZN

Flight Track Log - Related Links

Times and Time Zones

All times are in EDT time to prevent confusion due to time zone crossing. See the SKW6195 flight status page for this flight to view local times or setup timezone preferences in your user account.

Time Position Orientation Groundspeed Altitude Reporting Facility
EDT Latitude Longitude Course Direction KTS MPH feet Rate Location/Type
01:24PM 39.9175 -104.6858 12° North 206 237 6,600  Level Denver Center
01:25PM 39.9828 -104.6728 North 222 255 8,500 1,740 Climbing Denver Center
01:26PM 40.0583 -104.6594 North 271 312 10,200 1,800 Climbing Denver Center
01:27PM 40.1373 -104.9414 346° North  Level Estimated
01:28PM 40.2291 -105.0312 348° North  Level Estimated
01:28PM 40.1461 -104.6811 349° North 298 343 12,300  Level Denver Center
01:29PM 40.3208 -105.1214 346° North  Level Estimated
01:29PM 40.2308 -104.7039 348° North 309 356 13,800  Level Denver Center
01:30PM 40.4330 -105.0913 12° North  Level FlightAware Approximate
01:30PM 40.3239 -104.7286 349° North 315 362 15,700  Level Denver Center
01:31PM 40.4117 -104.7517 349° North 321 369 17,300 1,380 Climbing Denver Center
01:32PM 40.5061 -104.7775 348° North 324 373 18,600 1,200 Climbing Denver Center
01:33PM 40.5983 -104.8008 349° North 332 382 19,800 1,080 Climbing Denver Center
01:34PM 40.6956 -104.8297 347° North 335 386 20,900 1,020 Climbing Denver Center
01:35PM 40.7828 -104.8489 351° North 334 384 22,000 960 Climbing Denver Center
01:36PM 40.8736 -104.8919 340° North 345 397 23,200 1,020 Climbing Denver Center
01:37PM 40.9836 -104.9461 340° North 352 405 24,400 960 Climbing Denver Center
01:38PM 41.0892 -104.9978 340° North 356 410 25,300 720 Climbing Denver Center
01:39PM 41.1803 -105.0431 339° North 364 419 25,900 660 Climbing Denver Center
01:41PM 41.3422 -105.1264 339° North 370 426 27,100 660 Climbing Salt Lake Center
01:42PM 41.4517 -105.1789 340° North 374 430 27,800 600 Climbing Salt Lake Center
01:43PM 41.5539 -105.2322 339° North 381 438 28,400 420 Climbing Salt Lake Center
01:43PM 41.5803 -105.2597 322° Northwest 380 437 28,500 420 Climbing Denver Center
01:44PM 41.6611 -105.3839 311° West 393 452 29,100 540 Climbing Denver Center
01:46PM 41.7525 -105.5247 311° West 392 451 29,700 480 Climbing Denver Center
01:47PM 41.8203 -105.6303 311° West 391 450 30,200 480 Climbing Denver Center
01:48PM 41.8897 -105.7369 311° West 394 453 30,800 660 Climbing Denver Center
01:49PM 41.9678 -105.8592 311° West 389 448 31,600 540 Climbing Denver Center
01:50PM 42.0325 -105.9608 311° West 378 435 32,000 180 Climbing Denver Center
01:51PM 42.1083 -106.0825 310° West 378 435 32,000  Level Denver Center
01:52PM 42.1633 -106.1711 310° West 385 443 32,000  Level Denver Center
01:53PM 42.2550 -106.3133 311° West 392 451 32,000  Level Denver Center
01:54PM 42.3233 -106.4239 310° West 398 458 32,000  Level Denver Center
01:55PM 42.4050 -106.5511 311° West 401 461 32,000  Level Denver Center
01:56PM 42.4736 -106.6636 310° West 404 465 32,000  Level Denver Center
01:57PM 42.5550 -106.7931 311° West 404 465 32,000  Level Denver Center
01:58PM 42.6242 -106.9061 310° West 406 467 32,000  Level Denver Center
01:59PM 42.7042 -107.0367 310° West 403 464 32,000  Level Denver Center
02:00PM 42.7744 -107.1500 310° West 408 470 32,000  Level Denver Center
02:01PM 42.8475 -107.2681 310° West 411 473 32,000  Level Denver Center
02:02PM 42.9208 -107.3911 309° West 410 472 32,000  Level Denver Center
02:03PM 42.9931 -107.5106 310° West 411 473 32,000  Level Denver Center
02:04PM 43.0797 -107.6522 310° West 416 479 32,000  Level Denver Center
02:05PM 43.1544 -107.7789 309° West 416 479 32,000  Level Denver Center
02:07PM 43.2561 -107.9508 309° West 416 479 32,000  Level Salt Lake Center
02:08PM 43.3294 -108.0728 310° West 415 478 32,000  Level Salt Lake Center
02:09PM 43.4017 -108.1978 309° West 418 481 32,000  Level Salt Lake Center
02:10PM 43.4767 -108.3200 310° West 417 480 32,000  Level Salt Lake Center
02:11PM 43.5669 -108.4228 320° Northwest 421 484 32,000  Level Salt Lake Center
02:12PM 43.6739 -108.5492 319° Northwest 422 486 32,000  Level Salt Lake Center
02:13PM 43.7636 -108.6558 319° Northwest 425 489 32,000  Level Salt Lake Center
02:14PM 43.8536 -108.7606 320° Northwest 423 487 32,000  Level Salt Lake Center
02:15PM 43.9442 -108.8683 319° Northwest 427 491 32,000  Level Salt Lake Center
02:16PM 44.0336 -108.9753 319° Northwest 426 490 32,000  Level Salt Lake Center
02:17PM 44.1236 -109.0825 319° Northwest 426 490 32,000  Level Salt Lake Center
02:18PM 44.2322 -109.2131 319° Northwest 429 494 32,000  Level Salt Lake Center
02:19PM 44.3214 -109.3211 319° Northwest 425 489 32,000  Level Salt Lake Center
02:20PM 44.4108 -109.4314 319° Northwest 427 491 32,000  Level Salt Lake Center
02:21PM 44.5097 -109.5503 319° Northwest 427 491 32,000  Level Salt Lake Center
02:22PM 44.5900 -109.6500 319° Northwest 428 493 32,000  Level Salt Lake Center
02:23PM 44.6803 -109.7608 319° Northwest 431 496 32,000 -960 Level Salt Lake Center
02:24PM 44.7817 -109.8861 319° Northwest 433 498 30,100 -2,340 Descending Salt Lake Center
02:25PM 44.8681 -109.9931 319° Northwest 432 497 27,200 -3,060 Descending Salt Lake Center
02:26PM 44.9667 -110.1150 319° Northwest 424 488 23,800 -3,000 Descending Salt Lake Center
02:27PM 45.0486 -110.2161 319° Northwest 411 473 21,000 -2,640 Descending Salt Lake Center
02:28PM 45.1339 -110.3233 318° Northwest 389 448 18,400 -2,520 Descending Salt Lake Center
02:29PM 45.2094 -110.4186 318° Northwest 365 420 15,900 -1,680 Descending Salt Lake Center
02:30PM 45.2872 -110.5186 318° Northwest 334 384 15,000 -480 Descending Salt Lake Center
02:31PM 45.3533 -110.6017 319° Northwest 311 358 15,000  Level Salt Lake Center
02:32PM 45.4300 -110.7008 318° Northwest 345 397 15,000  Level Salt Lake Center
02:34PM 45.5022 -110.8006 316° Northwest 355 409 15,000 -540 Level Salt Lake Center
02:35PM 45.5606 -110.9194 305° West 359 413 13,900 -1,140 Descending Salt Lake Center
02:36PM 45.6178 -111.0317 306° West 345 397 12,700 -1,260 Descending Salt Lake Center
02:37PM 45.6728 -111.1350 307° West 325 374 11,300 -1,140 Descending Salt Lake Center
02:38PM 45.7225 -111.2231 309° West 278 320 10,400 -1,080 Descending Salt Lake Center
02:39PM 45.7728 -111.2903 317° Northwest 237 273 9,100 -1,440 Descending Salt Lake Center
02:40PM 45.8233 -111.3036 350° North 213 245 7,500 -1,500 Descending Salt Lake Center
02:41PM 45.8381 -111.2392 72° East 165 190 6,000 -1,260 Descending Salt Lake Center
02:42PM 45.8075 -111.1942 134° Southeast 157 181 5,000 -1,020 Descending Salt Lake Center